Main page
METAR-TAF:

METAR-TAF

Airports :

Donegal Airport

Donegal, Ireland

latitude: 55-02-39N, longitude: 8-20-28W, elevation: 9 m

Current weather observation

The report was made 28 minutes ago, at 13:00 UTC
Wind 7 kt from the South, varying between South/Southeast and Southwest
Temperature 6°C
Humidity 75%
Pressure 1030 hPa
Visibility: 9000 m
Scattered clouds at a height of 1200 ft
Broken clouds at a height of 1700 ft

METAR: EIDL 021300Z 18007KT 150V230 9000 SCT012 BKN017 06/02 Q1030

Time: 13:28 (13:28 UTC)

Forecast

The report was made 2 hours and 28 minutes ago, at 11:00 UTC
Forecast valid from 02 at 12 UTC to 02 at 21 UTC
Wind 9 kt from the South
Visibility: 8000 m
Few clouds at a height of 1000 ft
Broken clouds at a height of 2000 ft
Probability 30% :
Temporary
from 02 at 12 UTC to 02 at 21 UTC
Broken clouds at a height of 1000 ft

TAF: EIDL 021100Z 0212/0221 18009KT 8000 FEW010 BKN020 PROB30 TEMPO 0212/0221 BKN010

Weather observations and forecasts of more than 4000 airports (METAR and TAF reports).

The available stations are represented by yellow and red dots on the map.

Hover mouse over dot to see the name of the station.

Then click to see weather observations and forecasts.

To change the map : click on the green buttons with a black cross to zoom in, on the green button with a dash to zoom out, or on the green arrows for adjacent maps.


METAR-TAF: